Terminal Aerodrome Forecast
Issued by NWS

Home | Current Version | Previous Version | Text Only | Print | Product List | Glossary On
Versions: 1 2 3 4 5 6 7 8 9 10 11 12 13 14 15 16
000
FTAK31 PAJN 020500
TAFASI
TAF
PASI 020540Z 0206/0306 12014KT P6SM -RA OVC050 WS020/14030KT
     FM020900 12015G22KT 5SM RA SCT015 OVC030 WS020/14030KT
     FM021200 12015G25KT 4SM RA SCT015 OVC025 WS020/13040KT
     FM021700 12012KT P6SM -RA SCT015 OVC025 WS020/13030KT
     FM022300 12010G20KT P6SM VCSH SCT020 OVC040
     FM030200 13007KT P6SM SCT040 BKN070 BKN100=

USA.gov is the U.S. government's official web portal to all federal, state and local government web resources and services.